This is the latest recevied weather packets stored in our database for station/object VK2BLR. If no packets are shown the sender has not sent any weather packets the latest 10 day(s).
| Time | Temp. | Humidity | Pressure | Rain* | Wind** | Luminosity | Snow |
|---|---|---|---|---|---|---|---|
| 1787535391 | 20° C | 59% | 1021.1 hPa | 0 mm | - | - | - |
| 1787534490 | 19.44° C | 60% | 1021.2 hPa | 0 mm | - | - | - |
| 1787533590 | 18.33° C | 61% | 1021.4 hPa | 0 mm | - | - | - |
| 1787532692 | 18.89° C | 61% | 1021.5 hPa | 0 mm | - | - | - |
| 1787531792 | 19.44° C | 58% | 1021.7 hPa | 0 mm | - | - | - |
| 1787530891 | 19.44° C | 60% | 1021.7 hPa | 0 mm | - | - | - |
| 1787529990 | 18.89° C | 59% | 1021.7 hPa | 0 mm | - | - | - |
| 1787529092 | 18.89° C | 60% | 1021.6 hPa | 0 mm | - | - | - |
| 1787528192 | 18.33° C | 60% | 1021.6 hPa | 0 mm | - | - | - |
| 1787527291 | 17.78° C | 60% | 1021.6 hPa | 0 mm | - | - | - |
| 1787526391 | 17.78° C | 60% | 1021.8 hPa | 0 mm | - | - | - |
| 1787525492 | 17.22° C | 63% | 1021.7 hPa | 0 mm | - | - | - |
| 1787524590 | 17.22° C | 65% | 1021.5 hPa | 0 mm | - | - | - |
| 1787523692 | 16.11° C | 66% | 1021.3 hPa | 0 mm | - | - | - |
| 1787522791 | 15.56° C | 67% | 1021.3 hPa | 0 mm | - | - | - |
| 1787521892 | 15° C | 69% | 1020.9 hPa | 0 mm | - | - | - |
| 1787520990 | 13.89° C | 72% | 1021 hPa | 0 mm | - | - | - |
| 1787520092 | 12.78° C | 74% | 1020.6 hPa | 0 mm | - | - | - |
| 1787519191 | 11.67° C | 81% | 1020.6 hPa | 0 mm | - | - | - |
| 1787518290 | 11.67° C | 80% | 1020.6 hPa | 0 mm | - | - | - |
| 1787517391 | 11.67° C | 80% | 1020.4 hPa | 0 mm | - | - | - |
| 1787516491 | 11.67° C | 80% | 1020.4 hPa | 0 mm | - | - | - |
| 1787515592 | 11.67° C | 80% | 1020.3 hPa | 0 mm | - | - | - |
| 1787514691 | 11.67° C | 80% | 1020.3 hPa | 0 mm | - | - | - |
| 1787513791 | 11.67° C | 80% | 1020.3 hPa | 0 mm | - | - | - |
* Rain latest hour (hover to see other rain measurements)
** Current wind speed in m/s (hover to see current wind gust speed)